createdAt,value
2018-04-14T00:00:54.086Z,38.80
2018-04-14T00:03:22.366Z,36.80
2018-04-14T00:05:50.675Z,38.07
2018-04-14T00:08:18.931Z,38.00
2018-04-14T00:10:47.262Z,37.60
2018-04-14T00:13:15.583Z,36.07
2018-04-14T00:15:43.841Z,37.73
2018-04-14T00:18:12.153Z,36.53
2018-04-14T00:20:40.526Z,37.70
2018-04-14T00:23:08.787Z,38.07
2018-04-14T00:25:37.057Z,39.53
2018-04-14T00:28:05.428Z,38.40
2018-04-14T00:30:33.736Z,36.50
2018-04-14T00:33:01.980Z,34.13
2018-04-14T00:35:30.260Z,37.37
2018-04-14T00:38:00.253Z,37.20
2018-04-14T00:40:28.596Z,38.37
2018-04-14T00:42:57.702Z,38.60
2018-04-14T00:45:26.713Z,37.67
2018-04-14T00:47:54.997Z,37.00
2018-04-14T00:50:23.288Z,39.20
2018-04-14T00:52:51.573Z,38.30
2018-04-14T00:55:19.872Z,40.07
2018-04-14T00:57:48.159Z,39.17
2018-04-14T01:00:17.241Z,39.87
2018-04-14T01:02:46.256Z,38.67
2018-04-14T01:05:15.303Z,40.63
2018-04-14T01:07:43.622Z,41.77
2018-04-14T01:10:12.650Z,39.00
2018-04-14T01:12:40.960Z,40.20
2018-04-14T01:15:09.231Z,42.23
2018-04-14T01:17:37.535Z,38.90
2018-04-14T01:20:05.839Z,42.13
2018-04-14T01:22:34.085Z,41.27
2018-04-14T01:25:02.442Z,41.40
2018-04-14T01:27:30.668Z,43.67
2018-04-14T01:29:58.928Z,42.47
2018-04-14T01:32:28.032Z,43.97
2018-04-14T01:34:56.272Z,43.37
2018-04-14T01:37:24.538Z,43.83
2018-04-14T01:39:52.858Z,44.53
2018-04-14T01:42:21.184Z,44.37
2018-04-14T01:44:49.436Z,44.93
2018-04-14T01:47:18.637Z,44.57
2018-04-14T01:49:46.933Z,45.77
2018-04-14T01:52:15.200Z,47.27
2018-04-14T01:54:43.477Z,47.47
2018-04-14T01:57:11.779Z,49.23
2018-04-14T01:59:40.156Z,53.30
2018-04-14T02:02:08.419Z,56.70
2018-04-14T02:04:37.705Z,59.10
2018-04-14T02:07:06.000Z,62.17
2018-04-14T02:09:34.268Z,60.87
2018-04-14T02:12:02.575Z,65.17
2018-04-14T02:14:31.081Z,65.90
2018-04-14T02:17:00.124Z,68.43
2018-04-14T02:19:28.506Z,66.10
2018-04-14T02:21:56.806Z,63.53
2018-04-14T02:24:25.063Z,66.33
2018-04-14T02:26:53.332Z,70.93
2018-04-14T02:29:21.720Z,65.83
2018-04-14T02:31:50.348Z,61.53
2018-04-14T02:34:19.346Z,64.77
2018-04-14T02:36:47.696Z,62.72
2018-04-14T02:39:16.440Z,60.17
2018-04-14T02:41:44.866Z,65.17
2018-04-14T02:44:13.154Z,61.33
2018-04-14T02:46:42.177Z,57.50
2018-04-14T02:49:10.436Z,59.83
2018-04-14T02:51:38.773Z,55.07
2018-04-14T02:54:07.156Z,54.50
2018-04-14T02:56:35.410Z,51.87
2018-04-14T02:59:03.712Z,54.30
2018-04-14T03:01:32.064Z,51.28
2018-04-14T03:04:00.355Z,52.07
2018-04-14T03:06:28.752Z,53.10
2018-04-14T03:08:57.044Z,55.57
2018-04-14T03:11:26.075Z,55.33
2018-04-14T03:13:54.332Z,56.13
2018-04-14T03:16:22.604Z,59.00
2018-04-14T03:18:50.934Z,56.67
2018-04-14T03:21:19.220Z,54.30
2018-04-14T03:23:47.501Z,50.13
2018-04-14T03:26:15.814Z,52.80
2018-04-14T03:28:44.252Z,40.13
2018-04-14T03:31:12.577Z,36.93
2018-04-14T03:33:40.860Z,30.57
2018-04-14T03:36:09.178Z,30.00
2018-04-14T03:38:38.482Z,28.00
2018-04-14T03:41:06.732Z,28.10
2018-04-14T03:43:34.967Z,26.77
2018-04-14T03:46:03.281Z,25.70
2018-04-14T03:48:31.575Z,26.70
2018-04-14T03:50:59.867Z,26.10
2018-04-14T03:53:28.166Z,23.87
2018-04-14T03:55:56.478Z,20.10
2018-04-14T03:58:24.723Z,20.07
2018-04-14T04:00:53.054Z,22.03
2018-04-14T04:03:22.225Z,22.50
2018-04-14T04:05:50.528Z,21.40
2018-04-14T04:08:18.803Z,21.77
2018-04-14T04:10:47.185Z,21.03
2018-04-14T04:13:15.436Z,21.13
2018-04-14T04:15:43.737Z,18.57
2018-04-14T04:18:12.849Z,18.00
2018-04-14T04:21:02.689Z,17.80
2018-04-14T04:23:42.876Z,16.67
2018-04-14T04:26:10.872Z,17.70
2018-04-14T04:28:38.899Z,17.33
2018-04-14T04:31:07.037Z,15.10
2018-04-14T04:33:35.046Z,19.50
2018-04-14T04:36:03.111Z,14.43
2018-04-14T04:38:31.209Z,14.67
2018-04-14T04:41:00.307Z,16.10
2018-04-14T04:43:28.318Z,14.38
2018-04-14T04:45:57.114Z,12.48
2018-04-14T04:48:25.924Z,14.67
2018-04-14T04:50:53.965Z,11.43
2018-04-14T04:53:21.990Z,10.70
2018-04-14T04:55:50.160Z,13.20
2018-04-14T04:58:18.265Z,12.53
2018-04-14T05:00:47.813Z,11.90
2018-04-14T05:03:15.886Z,13.30
2018-04-14T05:05:43.932Z,10.33
2018-04-14T05:08:11.956Z,9.77
2018-04-14T05:10:40.096Z,9.57
2018-04-14T05:13:08.140Z,10.43
2018-04-14T05:15:36.940Z,10.10
2018-04-14T05:18:05.726Z,10.38
2018-04-14T05:20:34.488Z,10.67
2018-04-14T05:23:02.555Z,11.70
2018-04-14T05:25:30.576Z,10.97
2018-04-14T05:27:58.687Z,11.30
2018-04-14T05:30:26.723Z,12.10
2018-04-14T05:32:54.928Z,11.63
2018-04-14T05:35:23.019Z,11.17
2018-04-14T05:37:51.014Z,11.00
2018-04-14T05:40:19.842Z,10.37
2018-04-14T05:42:48.057Z,11.00
2018-04-14T05:45:16.868Z,12.20
2018-04-14T05:47:45.715Z,11.43
2018-04-14T05:50:13.893Z,11.60
2018-04-14T05:52:41.901Z,12.23
2018-04-14T05:55:10.318Z,12.57
2018-04-14T05:57:38.428Z,12.57
2018-04-14T06:00:06.577Z,12.53
2018-04-14T06:02:35.651Z,11.27
2018-04-14T06:05:03.687Z,12.00
2018-04-14T06:07:32.498Z,10.20
2018-04-14T06:10:00.551Z,10.35
2018-04-14T06:12:29.340Z,9.63
2018-04-14T06:14:58.301Z,10.40
2018-04-14T06:17:27.126Z,9.07
2018-04-14T06:19:55.218Z,9.20
2018-04-14T06:22:23.324Z,10.60
2018-04-14T06:24:52.200Z,9.30
2018-04-14T06:27:20.251Z,9.93
2018-04-14T06:29:48.332Z,8.27
2018-04-14T06:32:16.396Z,9.77
2018-04-14T06:34:44.385Z,9.90
2018-04-14T06:37:12.455Z,10.30
2018-04-14T06:39:40.478Z,10.60
2018-04-14T06:42:09.257Z,9.67
2018-04-14T06:44:38.077Z,11.17
2018-04-14T06:47:06.145Z,9.67
2018-04-14T06:49:34.244Z,9.97
2018-04-14T06:52:02.286Z,10.17
2018-04-14T06:54:30.375Z,9.60
2018-04-14T06:56:58.397Z,9.07
2018-04-14T06:59:27.177Z,8.87
2018-04-14T07:01:56.076Z,9.93
2018-04-14T07:04:24.918Z,8.97
2018-04-14T07:06:52.911Z,9.90
2018-04-14T07:09:21.001Z,9.87
2018-04-14T07:11:49.033Z,8.67
2018-04-14T07:14:17.093Z,8.57
2018-04-14T07:16:45.091Z,8.73
2018-04-14T07:19:13.093Z,9.63
2018-04-14T07:21:41.889Z,7.43
2018-04-14T07:24:10.804Z,7.83
2018-04-14T07:26:38.841Z,8.60
2018-04-14T07:29:06.901Z,8.77
2018-04-14T07:31:34.924Z,8.37
2018-04-14T07:34:02.971Z,8.03
2018-04-14T07:36:31.060Z,8.00
2018-04-14T07:38:59.095Z,7.80
2018-04-14T07:41:27.208Z,8.60
2018-04-14T07:43:55.269Z,9.03
2018-04-14T07:46:23.305Z,8.73
2018-04-14T07:48:52.128Z,8.70
2018-04-14T07:51:20.160Z,8.67
2018-04-14T07:53:48.988Z,9.03
2018-04-14T07:56:17.060Z,10.27
2018-04-14T07:58:45.084Z,10.30
2018-04-14T08:01:13.888Z,10.77
2018-04-14T08:03:42.726Z,10.77
2018-04-14T08:06:10.805Z,10.98
2018-04-14T08:08:38.816Z,11.33
2018-04-14T08:11:06.923Z,10.83
2018-04-14T08:13:34.955Z,11.80
2018-04-14T08:16:03.003Z,12.07
2018-04-14T08:18:31.912Z,13.30
2018-04-14T08:21:00.074Z,13.10
2018-04-14T08:23:28.087Z,14.73
2018-04-14T08:25:56.180Z,13.83
2018-04-14T08:28:24.292Z,13.10
2018-04-14T08:30:52.297Z,14.10
2018-04-14T08:33:20.394Z,17.10
2018-04-14T08:35:48.460Z,16.57
2018-04-14T08:38:16.533Z,16.90
2018-04-14T08:40:44.565Z,15.87
2018-04-14T08:43:13.662Z,16.77
2018-04-14T08:45:42.487Z,16.40
2018-04-14T08:48:10.487Z,17.03
2018-04-14T08:50:38.573Z,16.37
2018-04-14T08:53:06.643Z,16.57
2018-04-14T08:55:34.646Z,16.43
2018-04-14T08:58:02.757Z,14.70
2018-04-14T09:00:31.045Z,15.03
2018-04-14T09:02:59.264Z,13.70
2018-04-14T09:05:28.084Z,14.20
2018-04-14T09:07:56.257Z,14.60
2018-04-14T09:10:24.339Z,15.93
2018-04-14T09:12:52.401Z,16.00
2018-04-14T09:15:20.473Z,16.73
2018-04-14T09:17:48.747Z,15.77
2018-04-14T09:20:17.253Z,16.67
2018-04-14T09:22:46.150Z,15.90
2018-04-14T09:25:14.915Z,15.97
2018-04-14T09:27:43.688Z,16.97
2018-04-14T09:30:12.440Z,17.10
2018-04-14T09:32:40.712Z,16.03
2018-04-14T09:35:08.987Z,15.33
2018-04-14T09:37:37.263Z,14.93
2018-04-14T09:40:05.574Z,14.70
2018-04-14T09:42:33.838Z,13.57
2018-04-14T09:45:02.105Z,13.00
2018-04-14T09:47:30.411Z,13.33
2018-04-14T09:49:58.678Z,12.63
2018-04-14T09:52:26.957Z,11.50
2018-04-14T09:54:55.273Z,13.43
2018-04-14T09:57:24.395Z,13.43
2018-04-14T09:59:52.895Z,12.93
2018-04-14T10:02:21.206Z,13.03
2018-04-14T10:04:49.566Z,16.17
2018-04-14T10:07:17.821Z,15.13
2018-04-14T10:09:46.120Z,13.37
2018-04-14T10:12:14.378Z,13.57
2018-04-14T10:14:42.653Z,13.63
2018-04-14T10:17:11.968Z,13.07
2018-04-14T10:19:40.771Z,14.77
2018-04-14T10:22:09.662Z,12.93
2018-04-14T10:24:38.465Z,13.87
2018-04-14T10:27:08.991Z,12.60
2018-04-14T10:29:37.655Z,12.53
2018-04-14T10:32:06.264Z,13.55
2018-04-14T10:34:35.052Z,11.63
2018-04-14T10:37:03.833Z,9.73
2018-04-14T10:39:32.564Z,9.73
2018-04-14T10:42:01.200Z,8.87
2018-04-14T10:44:30.180Z,9.43
2018-04-14T10:46:58.986Z,9.30
2018-04-14T10:49:27.781Z,7.70
2018-04-14T10:51:56.440Z,7.97
2018-04-14T10:54:25.150Z,7.40
2018-04-14T10:56:53.940Z,8.20
2018-04-14T10:59:22.933Z,8.37
2018-04-14T11:01:51.520Z,6.63
2018-04-14T11:04:20.305Z,6.57
2018-04-14T11:06:48.977Z,6.30
2018-04-14T11:09:18.495Z,6.10
2018-04-14T11:11:47.284Z,6.00
2018-04-14T11:14:15.950Z,6.00
2018-04-14T11:16:45.457Z,6.20
2018-04-14T11:19:14.146Z,6.00
2018-04-14T11:21:42.913Z,7.03
2018-04-14T11:24:11.512Z,5.70
2018-04-14T11:26:40.403Z,6.97
2018-04-14T11:29:10.457Z,5.90
2018-04-14T11:31:38.773Z,6.30
2018-04-14T11:34:07.066Z,6.70
2018-04-14T11:36:35.339Z,6.17
2018-04-14T11:39:03.603Z,6.70
2018-04-14T11:41:31.856Z,5.40
2018-04-14T11:44:00.169Z,5.90
2018-04-14T11:46:28.416Z,6.40
2018-04-14T11:48:56.729Z,6.27
2018-04-14T11:51:24.999Z,5.80
2018-04-14T11:53:53.273Z,5.32
2018-04-14T11:56:21.738Z,5.77
2018-04-14T11:58:49.996Z,6.43
2018-04-14T12:01:18.284Z,6.50
2018-04-14T12:03:46.563Z,7.17
2018-04-14T12:06:14.828Z,7.53
2018-04-14T12:08:43.238Z,6.20
2018-04-14T12:11:11.488Z,8.07
2018-04-14T12:13:39.819Z,7.83
2018-04-14T12:16:09.375Z,8.43
2018-04-14T12:18:38.911Z,8.03
2018-04-14T12:21:07.695Z,8.77
2018-04-14T12:23:36.078Z,10.00
2018-04-14T12:26:04.350Z,10.60
2018-04-14T12:28:32.661Z,12.25
2018-04-14T12:31:00.921Z,12.23
2018-04-14T12:33:30.041Z,15.35
2018-04-14T12:35:58.331Z,16.33
2018-04-14T12:38:26.676Z,18.50
2018-04-14T12:40:55.724Z,19.07
2018-04-14T12:43:24.004Z,20.90
2018-04-14T12:45:52.352Z,21.03
2018-04-14T12:48:21.578Z,24.13
2018-04-14T12:50:49.859Z,25.50
2018-04-14T12:53:18.150Z,25.87
2018-04-14T12:55:46.736Z,28.33
2018-04-14T12:58:15.100Z,29.33
2018-04-14T13:00:43.388Z,29.33
2018-04-14T13:03:11.705Z,28.47
2018-04-14T13:05:40.003Z,27.57
2018-04-14T13:08:08.481Z,29.23
2018-04-14T13:10:36.794Z,27.05
2018-04-14T13:13:05.156Z,28.33
2018-04-14T13:15:33.559Z,28.93
2018-04-14T13:18:01.872Z,30.85
2018-04-14T13:20:30.983Z,33.23
2018-04-14T13:22:59.263Z,30.20
2018-04-14T13:25:27.616Z,31.62
2018-04-14T13:27:55.977Z,29.20
2018-04-14T13:30:24.352Z,30.17
2018-04-14T13:32:52.763Z,27.47
2018-04-14T13:35:21.048Z,28.70
2018-04-14T13:37:49.316Z,26.47
2018-04-14T13:40:17.627Z,24.53
2018-04-14T13:42:46.028Z,25.33
2018-04-14T13:45:14.320Z,24.10
2018-04-14T13:47:42.584Z,25.63
2018-04-14T13:50:10.902Z,24.60
2018-04-14T13:52:39.166Z,26.53
2018-04-14T13:55:09.147Z,28.33
2018-04-14T13:57:37.554Z,28.37
2018-04-14T14:00:06.650Z,30.20
2018-04-14T14:02:34.916Z,28.17
2018-04-14T14:05:03.957Z,26.87
2018-04-14T14:07:32.367Z,28.93
2018-04-14T14:10:00.618Z,28.47
2018-04-14T14:12:28.920Z,26.83
2018-04-14T14:14:58.741Z,27.67
2018-04-14T14:17:27.807Z,28.30
2018-04-14T14:19:56.120Z,30.27
2018-04-14T14:22:24.482Z,28.73
2018-04-14T14:24:52.868Z,28.83
2018-04-14T14:27:21.255Z,28.33
2018-04-14T14:29:50.300Z,29.97
2018-04-14T14:32:18.597Z,29.37
2018-04-14T14:34:46.895Z,30.10
2018-04-14T14:37:15.266Z,29.67
2018-04-14T14:39:44.350Z,29.97
2018-04-14T14:42:12.620Z,29.03
2018-04-14T14:44:41.029Z,30.63
2018-04-14T14:47:09.305Z,29.60
2018-04-14T14:49:38.045Z,29.87
2018-04-14T14:52:06.312Z,29.10
2018-04-14T14:54:34.703Z,28.27
2018-04-14T14:57:02.988Z,27.73
2018-04-14T14:59:31.276Z,27.50
2018-04-14T15:01:59.600Z,29.00
2018-04-14T15:04:27.906Z,28.00
2018-04-14T15:06:56.195Z,29.10
2018-04-14T15:09:24.602Z,32.42
2018-04-14T15:11:52.912Z,31.47
2018-04-14T15:14:21.982Z,34.17
2018-04-14T15:16:50.245Z,31.47
2018-04-14T15:19:18.540Z,35.23
2018-04-14T15:21:47.606Z,36.87
2018-04-14T15:24:15.911Z,35.77
2018-04-14T15:26:44.191Z,37.50
2018-04-14T15:29:13.334Z,38.73
2018-04-14T15:31:42.372Z,40.33
2018-04-14T15:34:10.767Z,40.60
2018-04-14T15:36:39.815Z,41.83
2018-04-14T15:39:08.079Z,41.57
2018-04-14T15:41:36.437Z,40.63
2018-04-14T15:44:04.704Z,43.60
2018-04-14T15:46:32.992Z,39.93
2018-04-14T15:49:01.296Z,41.40
2018-04-14T15:51:29.578Z,43.77
2018-04-14T15:53:57.866Z,44.07
2018-04-14T15:56:26.243Z,43.43
2018-04-14T15:58:54.520Z,43.93
2018-04-14T16:01:22.828Z,43.13
2018-04-14T16:03:51.952Z,45.23
2018-04-14T16:06:20.966Z,46.13
2018-04-14T16:08:49.238Z,44.07
2018-04-14T16:11:17.585Z,45.73
2018-04-14T16:13:47.656Z,43.30
2018-04-14T16:16:15.936Z,42.97
2018-04-14T16:18:44.258Z,41.92
2018-04-14T16:21:12.529Z,41.87
2018-04-14T16:23:40.822Z,42.13
2018-04-14T16:26:09.131Z,44.67
2018-04-14T16:28:37.434Z,40.23
2018-04-14T16:31:06.477Z,39.53
2018-04-14T16:33:34.722Z,40.33
2018-04-14T16:36:03.165Z,40.23
2018-04-14T16:38:31.552Z,40.00
2018-04-14T16:41:00.638Z,38.67
2018-04-14T16:43:28.973Z,39.83
2018-04-14T16:45:57.217Z,39.37
2018-04-14T16:48:27.978Z,39.53
2018-04-14T16:50:56.283Z,42.10
2018-04-14T16:53:24.588Z,42.97
2018-04-14T16:55:52.925Z,41.83
2018-04-14T16:58:21.269Z,41.00
2018-04-14T17:00:50.322Z,40.60
2018-04-14T17:03:18.619Z,40.93
2018-04-14T17:05:46.968Z,39.50
2018-04-14T17:08:15.249Z,42.30
2018-04-14T17:10:43.568Z,41.47
2018-04-14T17:13:11.842Z,42.60
2018-04-14T17:15:40.924Z,40.97
2018-04-14T17:18:10.020Z,42.90
2018-04-14T17:20:39.091Z,43.90
2018-04-14T17:23:07.374Z,44.77
2018-04-14T17:25:35.751Z,43.20
2018-04-14T17:28:04.034Z,43.00
2018-04-14T17:30:32.332Z,46.50
2018-04-14T17:33:00.737Z,43.47
2018-04-14T17:35:29.054Z,43.33
2018-04-14T17:37:57.359Z,43.75
2018-04-14T17:40:26.426Z,44.37
2018-04-14T17:42:54.687Z,44.60
2018-04-14T17:45:23.115Z,44.57
2018-04-14T17:47:52.139Z,43.50
2018-04-14T17:50:20.410Z,45.03
2018-04-14T17:52:48.696Z,42.73
2018-04-14T17:55:16.973Z,41.97
2018-04-14T17:57:46.229Z,44.72
2018-04-14T18:00:15.307Z,42.60
2018-04-14T18:02:44.373Z,43.10
2018-04-14T18:05:12.646Z,44.63
2018-04-14T18:07:40.969Z,44.13
2018-04-14T18:10:10.027Z,41.50
2018-04-14T18:12:38.292Z,42.17
2018-04-14T18:15:06.595Z,42.83
2018-04-14T18:17:34.885Z,42.10
2018-04-14T18:20:03.171Z,42.73
2018-04-14T18:22:32.227Z,44.53
2018-04-14T18:25:00.636Z,44.07
2018-04-14T18:27:28.936Z,45.57
2018-04-14T18:29:58.119Z,45.87
2018-04-14T18:32:27.295Z,46.47
2018-04-14T18:34:56.364Z,46.67
2018-04-14T18:37:24.646Z,43.63
2018-04-14T18:39:52.944Z,43.63
2018-04-14T18:42:22.719Z,44.63
2018-04-14T18:44:51.040Z,42.43
2018-04-14T18:47:19.316Z,44.57
2018-04-14T18:49:48.364Z,44.20
2018-04-14T18:52:16.643Z,44.23
2018-04-14T18:54:44.966Z,43.67
2018-04-14T18:57:13.330Z,45.73
2018-04-14T18:59:41.621Z,45.77
2018-04-14T19:02:09.977Z,46.23
2018-04-14T19:04:38.360Z,44.67
2018-04-14T19:07:06.629Z,44.70
2018-04-14T19:09:34.928Z,44.57
2018-04-14T19:12:04.010Z,46.03
2018-04-14T19:14:32.306Z,45.50
2018-04-14T19:17:02.324Z,44.30
2018-04-14T19:19:31.386Z,44.70
2018-04-14T19:21:59.665Z,43.57
2018-04-14T19:24:27.967Z,47.37
2018-04-14T19:26:57.024Z,44.17
2018-04-14T19:29:25.343Z,45.97
2018-04-14T19:31:55.744Z,46.20
2018-04-14T19:34:24.048Z,49.30
2018-04-14T19:36:53.090Z,47.13
2018-04-14T19:39:21.393Z,47.58
2018-04-14T19:41:51.196Z,48.80
2018-04-14T19:44:20.613Z,51.70
2018-04-14T19:46:48.902Z,51.63
2018-04-14T19:49:17.281Z,51.40
2018-04-14T19:51:46.365Z,50.10
2018-04-14T19:54:14.662Z,50.70
2018-04-14T19:56:43.690Z,50.97
2018-04-14T19:59:12.028Z,51.30
2018-04-14T20:01:42.046Z,50.73
2018-04-14T20:04:11.127Z,50.03
2018-04-14T20:06:39.422Z,52.88
2018-04-14T20:09:07.715Z,52.73
2018-04-14T20:11:36.022Z,54.53
2018-04-14T20:14:04.317Z,53.33
2018-04-14T20:16:32.684Z,53.73
2018-04-14T20:19:01.000Z,54.53
2018-04-14T20:21:30.078Z,53.93
2018-04-14T20:23:58.353Z,56.83
2018-04-14T20:26:26.721Z,56.03
2018-04-14T20:28:55.029Z,55.37
2018-04-14T20:31:24.212Z,56.27
2018-04-14T20:33:52.503Z,54.43
2018-04-14T20:36:21.716Z,55.10
2018-04-14T20:38:50.025Z,56.60
2018-04-14T20:41:18.450Z,57.57
2018-04-14T20:43:46.721Z,53.15
2018-04-14T20:46:15.816Z,57.13
2018-04-14T20:48:44.869Z,51.80
2018-04-14T20:51:13.158Z,54.73
2018-04-14T20:53:41.454Z,55.33
2018-04-14T20:56:09.747Z,55.00
2018-04-14T20:58:38.832Z,56.17
2018-04-14T21:01:07.095Z,58.20
2018-04-14T21:03:35.397Z,57.07
2018-04-14T21:06:04.459Z,54.50
2018-04-14T21:08:32.732Z,54.93
2018-04-14T21:11:01.323Z,57.13
2018-04-14T21:13:30.368Z,57.23
2018-04-14T21:15:58.799Z,57.45
2018-04-14T21:18:27.090Z,54.30
2018-04-14T21:20:55.372Z,54.77
2018-04-14T21:23:24.451Z,55.97
2018-04-14T21:25:52.766Z,59.90
2018-04-14T21:28:21.038Z,60.10
2018-04-14T21:30:49.378Z,56.87
2018-04-14T21:33:17.653Z,59.40
2018-04-14T21:35:46.014Z,54.97
2018-04-14T21:38:14.296Z,58.83
2018-04-14T21:40:42.596Z,55.20
2018-04-14T21:43:11.790Z,58.00
2018-04-14T21:45:40.156Z,56.33
2018-04-14T21:48:08.433Z,58.37
2018-04-14T21:50:36.756Z,59.63
2018-04-14T21:53:05.998Z,57.03
2018-04-14T21:55:34.343Z,58.00
2018-04-14T21:58:02.643Z,58.20
2018-04-14T22:00:30.937Z,57.23
2018-04-14T22:02:59.214Z,56.87
2018-04-14T22:05:27.573Z,58.80
2018-04-14T22:07:55.966Z,58.77
2018-04-14T22:10:24.250Z,61.03
2018-04-14T22:12:52.509Z,59.37
2018-04-14T22:15:20.885Z,57.57
2018-04-14T22:17:49.159Z,59.90
2018-04-14T22:20:17.472Z,57.77
2018-04-14T22:22:46.527Z,61.77
2018-04-14T22:25:14.928Z,61.13
2018-04-14T22:27:43.214Z,59.50
2018-04-14T22:30:11.477Z,61.07
2018-04-14T22:32:39.739Z,63.40
2018-04-14T22:35:07.993Z,64.73
2018-04-14T22:37:37.199Z,62.57
2018-04-14T22:40:05.524Z,55.47
2018-04-14T22:42:34.598Z,56.80
2018-04-14T22:45:04.414Z,58.27
2018-04-14T22:47:32.673Z,55.60
2018-04-14T22:50:01.824Z,57.50
2018-04-14T22:52:30.131Z,57.95
2018-04-14T22:54:58.686Z,56.70
2018-04-14T22:57:26.991Z,58.73
2018-04-14T22:59:55.322Z,58.53
2018-04-14T23:02:24.557Z,59.43
2018-04-14T23:04:52.820Z,53.87
2018-04-14T23:07:21.133Z,56.73
2018-04-14T23:09:49.412Z,57.40
2018-04-14T23:12:17.689Z,57.63
2018-04-14T23:14:45.949Z,59.60
2018-04-14T23:17:14.249Z,55.07
2018-04-14T23:19:42.535Z,55.80
2018-04-14T23:22:10.809Z,56.60
2018-04-14T23:24:39.064Z,56.07
2018-04-14T23:27:07.357Z,57.23
2018-04-14T23:29:36.420Z,56.00
2018-04-14T23:32:04.670Z,56.47
2018-04-14T23:34:32.921Z,57.10
2018-04-14T23:37:02.801Z,56.73
2018-04-14T23:39:31.081Z,55.63
2018-04-14T23:41:59.370Z,54.93
2018-04-14T23:44:27.625Z,58.00
2018-04-14T23:46:57.205Z,57.27
2018-04-14T23:49:25.517Z,55.00
2018-04-14T23:51:53.790Z,56.53
2018-04-14T23:54:22.068Z,54.87
2018-04-14T23:56:51.151Z,55.23
2018-04-14T23:59:19.497Z,56.77
